Lake Hubert, Minnesota
Current Conditions -  °F | °C
As of 4:42 PM on Friday 19 Dec 2014 (Local Time) from KBRD Reporting Station
Haze Haze  
Wind Chill: 15°   Ceiling: 500
Heat Index: 24°   Visibility: 3mi
Dew Point: 23°   Wind: 8mph
Humidity: 96%   Direction: 150°SSE
Pressure: 30.12"   Gusts: NA
Location:  46.5°N, 94.26°W
Report Text: KBRD 192242Z AUTO 15007KT 3SM BR OVC005 M04/M05 A3012 RMK AO2 T10441050
Loading
Personal Weather Stations






























Interactive Weather Map New forecast layout! Learn more

10-Day Weather Forecast

Advertisements
Track Severe Weather on mobile